DLH4YE EDDF-EPWA
Flight info
| Callsign | DLH4YE |
|---|---|
| Flight time | 1h 17m |
| Altitude | 37000 |
| Route | SULUS7S/18 SULUS L984 OKG DCT BALTU DCT LEGAZ DCT LAGAR DCT OKENO Q277 AGAVA |
| Aircraft | A320/M-SDE2E3FGIJ1LORWXYZ/HB1 |
Departure
| Time | 2026-05-05 18:46 |
|---|---|
| Airport | Frankfurt Main Airport (EDDF) |
Arrival
| Time | 2026-05-05 20:03 |
|---|---|
| Airport | Warsaw Chopin Airport (EPWA) |
| Time | Latitude | Longitude | Altitude | Speed | Heading |
|---|---|---|---|---|---|
| 2026-05-05 18:09 | 50.04638 | 8.56658 | 353 ft | 0 kts | 114° |
| 2026-05-05 18:29 | 50.04641 | 8.56648 | 349 ft | 2 kts | 115° |
| 2026-05-05 18:29 | 50.04649 | 8.56625 | 357 ft | 2 kts | 120° |
| 2026-05-05 18:29 | 50.04658 | 8.56603 | 358 ft | 2 kts | 127° |
| 2026-05-05 18:29 | 50.04668 | 8.56583 | 353 ft | 2 kts | 136° |
| 2026-05-05 18:30 | 50.04681 | 8.56566 | 351 ft | 2 kts | 155° |
| 2026-05-05 18:30 | 50.04696 | 8.56559 | 355 ft | 2 kts | 190° |
| 2026-05-05 18:30 | 50.04712 | 8.56568 | 349 ft | 2 kts | 222° |
| 2026-05-05 18:30 | 50.04716 | 8.56573 | 354 ft | 0 kts | 231° |
| 2026-05-05 18:34 | 50.04712 | 8.56566 | 349 ft | 2 kts | 231° |
| 2026-05-05 18:34 | 50.04699 | 8.56541 | 354 ft | 4 kts | 231° |
| 2026-05-05 18:34 | 50.04678 | 8.56479 | 354 ft | 8 kts | 248° |
| 2026-05-05 18:34 | 50.04661 | 8.56411 | 351 ft | 6 kts | 249° |
| 2026-05-05 18:35 | 50.04649 | 8.56362 | 351 ft | 4 kts | 249° |
| 2026-05-05 18:35 | 50.04632 | 8.56293 | 349 ft | 8 kts | 250° |
| 2026-05-05 18:35 | 50.04617 | 8.56226 | 351 ft | 6 kts | 249° |
| 2026-05-05 18:35 | 50.04602 | 8.56168 | 350 ft | 7 kts | 249° |
| 2026-05-05 18:36 | 50.04585 | 8.56096 | 357 ft | 7 kts | 250° |
| 2026-05-05 18:36 | 50.04562 | 8.56004 | 353 ft | 9 kts | 245° |
| 2026-05-05 18:36 | 50.04519 | 8.55953 | 354 ft | 7 kts | 198° |
| 2026-05-05 18:36 | 50.04478 | 8.55933 | 352 ft | 6 kts | 197° |
| 2026-05-05 18:37 | 50.04413 | 8.55910 | 352 ft | 12 kts | 187° |
| 2026-05-05 18:37 | 50.04339 | 8.55931 | 356 ft | 10 kts | 161° |
| 2026-05-05 18:37 | 50.04315 | 8.55943 | 353 ft | 0 kts | 161° |
| 2026-05-05 18:37 | 50.04288 | 8.55955 | 354 ft | 7 kts | 168° |
| 2026-05-05 18:38 | 50.04243 | 8.55934 | 355 ft | 7 kts | 222° |
| 2026-05-05 18:38 | 50.04219 | 8.55856 | 357 ft | 11 kts | 249° |
| 2026-05-05 18:38 | 50.04186 | 8.55718 | 355 ft | 14 kts | 250° |
| 2026-05-05 18:38 | 50.04151 | 8.55568 | 357 ft | 15 kts | 250° |
| 2026-05-05 18:39 | 50.04113 | 8.55411 | 351 ft | 16 kts | 249° |
| 2026-05-05 18:39 | 50.04073 | 8.55246 | 353 ft | 17 kts | 249° |
| 2026-05-05 18:39 | 50.04030 | 8.55069 | 352 ft | 18 kts | 249° |
| 2026-05-05 18:39 | 50.03986 | 8.54885 | 352 ft | 19 kts | 250° |
| 2026-05-05 18:40 | 50.03940 | 8.54690 | 355 ft | 20 kts | 250° |
| 2026-05-05 18:40 | 50.03891 | 8.54486 | 355 ft | 20 kts | 250° |
| 2026-05-05 18:40 | 50.03829 | 8.54329 | 353 ft | 0 kts | 187° |
| 2026-05-05 18:40 | 50.03823 | 8.54323 | 358 ft | 2 kts | 227° |
| 2026-05-05 18:41 | 50.03812 | 8.54271 | 352 ft | 9 kts | 249° |
| 2026-05-05 18:41 | 50.03784 | 8.54157 | 356 ft | 11 kts | 249° |
| 2026-05-05 18:41 | 50.03758 | 8.54049 | 353 ft | 10 kts | 249° |
| 2026-05-05 18:41 | 50.03732 | 8.53940 | 355 ft | 13 kts | 250° |
| 2026-05-05 18:42 | 50.03693 | 8.53776 | 353 ft | 18 kts | 249° |
| 2026-05-05 18:42 | 50.03647 | 8.53585 | 352 ft | 19 kts | 249° |
| 2026-05-05 18:42 | 50.03598 | 8.53389 | 353 ft | 20 kts | 249° |
| 2026-05-05 18:42 | 50.03549 | 8.53184 | 355 ft | 21 kts | 249° |
| 2026-05-05 18:43 | 50.03498 | 8.52976 | 354 ft | 21 kts | 249° |
| 2026-05-05 18:43 | 50.03443 | 8.52763 | 354 ft | 21 kts | 248° |
| 2026-05-05 18:43 | 50.03409 | 8.52626 | 357 ft | 9 kts | 251° |
| 2026-05-05 18:43 | 50.03382 | 8.52593 | 357 ft | 0 kts | 177° |
| 2026-05-05 18:45 | 50.03335 | 8.52594 | 352 ft | 31 kts | 180° |
| 2026-05-05 18:45 | 50.02867 | 8.52596 | 357 ft | 100 kts | 180° |
| 2026-05-05 18:45 | 50.01991 | 8.52602 | 351 ft | 150 kts | 180° |
| 2026-05-05 18:45 | 50.00812 | 8.52594 | 437 ft | 184 kts | 180° |
| 2026-05-05 18:46 | 49.99477 | 8.52632 | 841 ft | 199 kts | 179° |
| 2026-05-05 18:46 | 49.98018 | 8.52713 | 1295 ft | 221 kts | 176° |
| 2026-05-05 18:46 | 49.96561 | 8.53467 | 2013 ft | 231 kts | 145° |
| 2026-05-05 18:46 | 49.95508 | 8.55510 | 2430 ft | 257 kts | 118° |
| 2026-05-05 18:47 | 49.94663 | 8.58034 | 3176 ft | 266 kts | 119° |
| 2026-05-05 18:47 | 49.93782 | 8.60591 | 3783 ft | 272 kts | 120° |
| 2026-05-05 18:47 | 49.92874 | 8.63168 | 3962 ft | 272 kts | 121° |
| 2026-05-05 18:47 | 49.91957 | 8.65736 | 4005 ft | 271 kts | 121° |
| 2026-05-05 18:48 | 49.91040 | 8.68286 | 4010 ft | 271 kts | 121° |
| 2026-05-05 18:48 | 49.90115 | 8.70850 | 4541 ft | 274 kts | 121° |
| 2026-05-05 18:48 | 49.89177 | 8.73434 | 5475 ft | 276 kts | 121° |
| 2026-05-05 18:48 | 49.88229 | 8.76043 | 6370 ft | 279 kts | 121° |
| 2026-05-05 18:49 | 49.87402 | 8.78785 | 7172 ft | 286 kts | 107° |
| 2026-05-05 18:49 | 49.87279 | 8.81871 | 7950 ft | 294 kts | 83° |
| 2026-05-05 18:49 | 49.87629 | 8.85014 | 8773 ft | 297 kts | 81° |
| 2026-05-05 18:49 | 49.88000 | 8.88195 | 9596 ft | 301 kts | 81° |
| 2026-05-05 18:50 | 49.88377 | 8.91427 | 10187 ft | 313 kts | 81° |
| 2026-05-05 18:50 | 49.88773 | 8.94866 | 10426 ft | 336 kts | 81° |
| 2026-05-05 18:50 | 49.89186 | 8.98506 | 10932 ft | 347 kts | 81° |
| 2026-05-05 18:50 | 49.89605 | 9.02224 | 11626 ft | 352 kts | 81° |
| 2026-05-05 18:51 | 49.90028 | 9.05984 | 12323 ft | 356 kts | 81° |
| 2026-05-05 18:51 | 49.90451 | 9.09771 | 13030 ft | 360 kts | 81° |
| 2026-05-05 18:51 | 49.90885 | 9.13655 | 13704 ft | 364 kts | 81° |
| 2026-05-05 18:51 | 49.91315 | 9.17511 | 14311 ft | 368 kts | 81° |
| 2026-05-05 18:52 | 49.91752 | 9.21443 | 14946 ft | 370 kts | 81° |
| 2026-05-05 18:52 | 49.92190 | 9.25385 | 15587 ft | 372 kts | 82° |
| 2026-05-05 18:52 | 49.92630 | 9.29365 | 16226 ft | 375 kts | 82° |
| 2026-05-05 18:52 | 49.93069 | 9.33369 | 16864 ft | 378 kts | 82° |
| 2026-05-05 18:53 | 49.93509 | 9.37394 | 17485 ft | 380 kts | 82° |
| 2026-05-05 18:53 | 49.93955 | 9.41462 | 18106 ft | 383 kts | 82° |
| 2026-05-05 18:53 | 49.94402 | 9.45544 | 18649 ft | 385 kts | 82° |
| 2026-05-05 18:53 | 49.94850 | 9.49648 | 19201 ft | 387 kts | 82° |
| 2026-05-05 18:54 | 49.95299 | 9.53776 | 19764 ft | 388 kts | 82° |
| 2026-05-05 18:54 | 49.95748 | 9.57920 | 20318 ft | 390 kts | 82° |
| 2026-05-05 18:54 | 49.96191 | 9.62075 | 20855 ft | 391 kts | 82° |
| 2026-05-05 18:54 | 49.96636 | 9.66252 | 21379 ft | 393 kts | 82° |
| 2026-05-05 18:55 | 49.97078 | 9.70399 | 21888 ft | 395 kts | 82° |
| 2026-05-05 18:55 | 49.97530 | 9.74667 | 22406 ft | 397 kts | 82° |
| 2026-05-05 18:55 | 49.97978 | 9.78909 | 22761 ft | 398 kts | 82° |
| 2026-05-05 18:55 | 49.98425 | 9.83151 | 22825 ft | 398 kts | 83° |
| 2026-05-05 18:56 | 49.98874 | 9.87399 | 22829 ft | 398 kts | 83° |
| 2026-05-05 18:56 | 49.99315 | 9.91576 | 22828 ft | 398 kts | 83° |
| 2026-05-05 18:56 | 49.99758 | 9.95813 | 22833 ft | 398 kts | 83° |
| 2026-05-05 18:56 | 50.00200 | 10.00075 | 23266 ft | 401 kts | 83° |
| 2026-05-05 18:57 | 50.00644 | 10.04371 | 23695 ft | 403 kts | 83° |
| 2026-05-05 18:57 | 50.01088 | 10.08686 | 24096 ft | 404 kts | 83° |
| 2026-05-05 18:57 | 50.01532 | 10.13003 | 24506 ft | 406 kts | 83° |
| 2026-05-05 18:57 | 50.01978 | 10.17348 | 24898 ft | 408 kts | 83° |
| 2026-05-05 18:58 | 50.02423 | 10.21711 | 25287 ft | 410 kts | 83° |
| 2026-05-05 18:58 | 50.02870 | 10.26100 | 25674 ft | 411 kts | 83° |
| 2026-05-05 18:58 | 50.03317 | 10.30507 | 26046 ft | 413 kts | 83° |
| 2026-05-05 18:58 | 50.03766 | 10.34933 | 26418 ft | 415 kts | 83° |
| 2026-05-05 18:59 | 50.04215 | 10.39379 | 26787 ft | 417 kts | 84° |
| 2026-05-05 18:59 | 50.04663 | 10.43838 | 27160 ft | 419 kts | 84° |
| 2026-05-05 18:59 | 50.05108 | 10.48333 | 27517 ft | 421 kts | 84° |
| 2026-05-05 18:59 | 50.05553 | 10.52852 | 27880 ft | 423 kts | 84° |
| 2026-05-05 19:00 | 50.05991 | 10.57301 | 28231 ft | 425 kts | 84° |
| 2026-05-05 19:00 | 50.06446 | 10.61932 | 28577 ft | 427 kts | 84° |
| 2026-05-05 19:00 | 50.06893 | 10.66504 | 28921 ft | 429 kts | 84° |
| 2026-05-05 19:00 | 50.07340 | 10.71108 | 29268 ft | 430 kts | 85° |
| 2026-05-05 19:01 | 50.07530 | 10.75744 | 29578 ft | 429 kts | 93° |
| 2026-05-05 19:01 | 50.07537 | 10.80400 | 29886 ft | 431 kts | 93° |
| 2026-05-05 19:01 | 50.07539 | 10.85066 | 30143 ft | 433 kts | 93° |
| 2026-05-05 19:01 | 50.07536 | 10.89766 | 30383 ft | 435 kts | 93° |
| 2026-05-05 19:02 | 50.07530 | 10.94483 | 30619 ft | 437 kts | 93° |
| 2026-05-05 19:02 | 50.07524 | 10.99225 | 30860 ft | 439 kts | 93° |
| 2026-05-05 19:02 | 50.07518 | 11.03976 | 31130 ft | 439 kts | 93° |
| 2026-05-05 19:02 | 50.07511 | 11.08734 | 31466 ft | 438 kts | 93° |
| 2026-05-05 19:03 | 50.07501 | 11.13474 | 31804 ft | 438 kts | 93° |
| 2026-05-05 19:03 | 50.07487 | 11.18211 | 32134 ft | 438 kts | 93° |
| 2026-05-05 19:03 | 50.07474 | 11.22944 | 32469 ft | 437 kts | 93° |
| 2026-05-05 19:03 | 50.07461 | 11.27679 | 32798 ft | 437 kts | 93° |
| 2026-05-05 19:04 | 50.07444 | 11.32392 | 33113 ft | 437 kts | 93° |
| 2026-05-05 19:04 | 50.07423 | 11.37057 | 33423 ft | 437 kts | 93° |
| 2026-05-05 19:04 | 50.07398 | 11.41862 | 33739 ft | 437 kts | 93° |
| 2026-05-05 19:04 | 50.07374 | 11.46568 | 34016 ft | 437 kts | 93° |
| 2026-05-05 19:05 | 50.07351 | 11.51147 | 34256 ft | 437 kts | 93° |
| 2026-05-05 19:05 | 50.07323 | 11.56039 | 34481 ft | 438 kts | 94° |
| 2026-05-05 19:05 | 50.07292 | 11.60789 | 34698 ft | 439 kts | 94° |
| 2026-05-05 19:05 | 50.07261 | 11.65548 | 34923 ft | 439 kts | 94° |
| 2026-05-05 19:06 | 50.07231 | 11.70309 | 35133 ft | 440 kts | 94° |
| 2026-05-05 19:06 | 50.07202 | 11.75076 | 35340 ft | 441 kts | 94° |
| 2026-05-05 19:06 | 50.07173 | 11.79851 | 35544 ft | 442 kts | 94° |
| 2026-05-05 19:06 | 50.07142 | 11.84635 | 35747 ft | 442 kts | 94° |
| 2026-05-05 19:07 | 50.07107 | 11.89427 | 35939 ft | 443 kts | 94° |
| 2026-05-05 19:07 | 50.07083 | 11.92596 | 36073 ft | 443 kts | 94° |
| 2026-05-05 19:07 | 50.07027 | 11.99004 | 36323 ft | 443 kts | 94° |
| 2026-05-05 19:07 | 50.06979 | 12.03806 | 36507 ft | 444 kts | 94° |
| 2026-05-05 19:08 | 50.06927 | 12.08616 | 36697 ft | 444 kts | 94° |
| 2026-05-05 19:08 | 50.06873 | 12.13403 | 36791 ft | 444 kts | 94° |
| 2026-05-05 19:08 | 50.06756 | 12.23015 | 36799 ft | 443 kts | 94° |
| 2026-05-05 19:09 | 50.06633 | 12.32608 | 36793 ft | 443 kts | 94° |
| 2026-05-05 19:09 | 50.06512 | 12.42192 | 36798 ft | 444 kts | 93° |
| 2026-05-05 19:10 | 50.06705 | 12.51821 | 36804 ft | 446 kts | 90° |
| 2026-05-05 19:10 | 50.07083 | 12.61460 | 36813 ft | 446 kts | 90° |
| 2026-05-05 19:11 | 50.07377 | 12.69479 | 36817 ft | 446 kts | 90° |
| 2026-05-05 19:11 | 50.07654 | 12.79125 | 36816 ft | 446 kts | 91° |
| 2026-05-05 19:12 | 50.07893 | 12.88790 | 36815 ft | 447 kts | 91° |
| 2026-05-05 19:12 | 50.08129 | 12.98471 | 36809 ft | 448 kts | 91° |
| 2026-05-05 19:13 | 50.08376 | 13.08183 | 36800 ft | 449 kts | 91° |
| 2026-05-05 19:13 | 50.08610 | 13.17915 | 36787 ft | 451 kts | 91° |
| 2026-05-05 19:14 | 50.08947 | 13.27678 | 36777 ft | 455 kts | 84° |
| 2026-05-05 19:14 | 50.10832 | 13.37125 | 36758 ft | 461 kts | 64° |
| 2026-05-05 19:15 | 50.14146 | 13.45691 | 36746 ft | 463 kts | 59° |
| 2026-05-05 19:15 | 50.17532 | 13.54239 | 36748 ft | 464 kts | 59° |
| 2026-05-05 19:16 | 50.20905 | 13.62834 | 36744 ft | 464 kts | 59° |
| 2026-05-05 19:16 | 50.24274 | 13.71450 | 36750 ft | 465 kts | 59° |
| 2026-05-05 19:17 | 50.27645 | 13.80058 | 36747 ft | 465 kts | 59° |
| 2026-05-05 19:17 | 50.31025 | 13.88697 | 36754 ft | 465 kts | 59° |
| 2026-05-05 19:18 | 50.34393 | 13.97354 | 36765 ft | 465 kts | 59° |
| 2026-05-05 19:18 | 50.37749 | 14.06022 | 36772 ft | 465 kts | 59° |
| 2026-05-05 19:19 | 50.41095 | 14.14677 | 36772 ft | 465 kts | 59° |
| 2026-05-05 19:19 | 50.44447 | 14.23379 | 36781 ft | 465 kts | 59° |
| 2026-05-05 19:20 | 50.47780 | 14.32068 | 36786 ft | 465 kts | 59° |
| 2026-05-05 19:20 | 50.51113 | 14.40779 | 36787 ft | 465 kts | 59° |
| 2026-05-05 19:21 | 50.54436 | 14.49490 | 36781 ft | 465 kts | 59° |
| 2026-05-05 19:21 | 50.57755 | 14.58229 | 36780 ft | 465 kts | 59° |
| 2026-05-05 19:22 | 50.61062 | 14.66955 | 36785 ft | 465 kts | 59° |
| 2026-05-05 19:22 | 50.64356 | 14.75705 | 36781 ft | 464 kts | 60° |
| 2026-05-05 19:23 | 50.67165 | 14.84838 | 36783 ft | 463 kts | 70° |
| 2026-05-05 19:23 | 50.69443 | 14.94335 | 36781 ft | 463 kts | 70° |
| 2026-05-05 19:24 | 50.71729 | 15.03845 | 36787 ft | 463 kts | 70° |
| 2026-05-05 19:24 | 50.74004 | 15.13346 | 36783 ft | 463 kts | 70° |
| 2026-05-05 19:25 | 50.76248 | 15.22801 | 36785 ft | 463 kts | 70° |
| 2026-05-05 19:25 | 50.78514 | 15.32400 | 36785 ft | 463 kts | 70° |
| 2026-05-05 19:26 | 50.80788 | 15.41931 | 36790 ft | 464 kts | 69° |
| 2026-05-05 19:26 | 50.82947 | 15.51526 | 36799 ft | 463 kts | 73° |
| 2026-05-05 19:27 | 50.84735 | 15.61301 | 36806 ft | 463 kts | 75° |
| 2026-05-05 19:27 | 50.86473 | 15.71132 | 36807 ft | 463 kts | 75° |
| 2026-05-05 19:28 | 50.88293 | 15.80914 | 36818 ft | 463 kts | 74° |
| 2026-05-05 19:28 | 50.90144 | 15.90601 | 36817 ft | 463 kts | 74° |
| 2026-05-05 19:29 | 50.91995 | 16.00369 | 36821 ft | 463 kts | 74° |
| 2026-05-05 19:29 | 50.93816 | 16.10144 | 36812 ft | 462 kts | 74° |
| 2026-05-05 19:30 | 50.95621 | 16.19926 | 36814 ft | 462 kts | 74° |
| 2026-05-05 19:30 | 50.97416 | 16.29699 | 36812 ft | 462 kts | 74° |
| 2026-05-05 19:31 | 50.99208 | 16.39477 | 36809 ft | 461 kts | 74° |
| 2026-05-05 19:31 | 51.00988 | 16.49256 | 36801 ft | 461 kts | 74° |
| 2026-05-05 19:32 | 51.02759 | 16.59038 | 36791 ft | 461 kts | 74° |
| 2026-05-05 19:32 | 51.04526 | 16.68830 | 36789 ft | 461 kts | 74° |
| 2026-05-05 19:33 | 51.06289 | 16.78614 | 36784 ft | 460 kts | 74° |
| 2026-05-05 19:33 | 51.08037 | 16.88388 | 36785 ft | 460 kts | 75° |
| 2026-05-05 19:34 | 51.09773 | 16.98183 | 36786 ft | 460 kts | 75° |
| 2026-05-05 19:35 | 51.12357 | 17.12878 | 36789 ft | 459 kts | 75° |
| 2026-05-05 19:35 | 51.14067 | 17.22673 | 36789 ft | 459 kts | 75° |
| 2026-05-05 19:36 | 51.15765 | 17.32415 | 36787 ft | 459 kts | 75° |
| 2026-05-05 19:36 | 51.17461 | 17.42218 | 36786 ft | 458 kts | 75° |
| 2026-05-05 19:37 | 51.19150 | 17.52014 | 36784 ft | 458 kts | 75° |
| 2026-05-05 19:37 | 51.20827 | 17.61806 | 36784 ft | 458 kts | 75° |
| 2026-05-05 19:38 | 51.22493 | 17.71617 | 36779 ft | 458 kts | 75° |
| 2026-05-05 19:38 | 51.24153 | 17.81428 | 36784 ft | 458 kts | 75° |
| 2026-05-05 19:39 | 51.25805 | 17.91248 | 36781 ft | 458 kts | 75° |
| 2026-05-05 19:39 | 51.27448 | 18.01061 | 36780 ft | 458 kts | 75° |
| 2026-05-05 19:40 | 51.29080 | 18.10887 | 36779 ft | 457 kts | 75° |
| 2026-05-05 19:40 | 51.30869 | 18.20631 | 36780 ft | 457 kts | 70° |
| 2026-05-05 19:41 | 51.33085 | 18.30155 | 36778 ft | 458 kts | 69° |
| 2026-05-05 19:41 | 51.35358 | 18.39666 | 36769 ft | 458 kts | 69° |
| 2026-05-05 19:42 | 51.37608 | 18.49206 | 36095 ft | 456 kts | 69° |
| 2026-05-05 19:42 | 51.38714 | 18.53955 | 35527 ft | 454 kts | 69° |
| 2026-05-05 19:42 | 51.39807 | 18.58686 | 35090 ft | 451 kts | 69° |
| 2026-05-05 19:42 | 51.40889 | 18.63403 | 34472 ft | 451 kts | 69° |
| 2026-05-05 19:43 | 51.41962 | 18.68078 | 33861 ft | 442 kts | 69° |
| 2026-05-05 19:43 | 51.43016 | 18.72654 | 33176 ft | 435 kts | 69° |
| 2026-05-05 19:43 | 51.44058 | 18.77172 | 32508 ft | 430 kts | 69° |
| 2026-05-05 19:43 | 51.45093 | 18.81656 | 31838 ft | 428 kts | 69° |
| 2026-05-05 19:44 | 51.46119 | 18.86108 | 31207 ft | 425 kts | 69° |
| 2026-05-05 19:44 | 51.47136 | 18.90530 | 30576 ft | 421 kts | 70° |
| 2026-05-05 19:44 | 51.48141 | 18.94917 | 29962 ft | 417 kts | 70° |
| 2026-05-05 19:44 | 51.49133 | 18.99268 | 29273 ft | 414 kts | 70° |
| 2026-05-05 19:45 | 51.50116 | 19.03583 | 28581 ft | 410 kts | 70° |
| 2026-05-05 19:45 | 51.51086 | 19.07853 | 27918 ft | 406 kts | 70° |
| 2026-05-05 19:45 | 51.52048 | 19.12108 | 27245 ft | 403 kts | 70° |
| 2026-05-05 19:45 | 51.52995 | 19.16308 | 26595 ft | 399 kts | 70° |
| 2026-05-05 19:46 | 51.53935 | 19.20489 | 25962 ft | 395 kts | 70° |
| 2026-05-05 19:46 | 51.54863 | 19.24622 | 25351 ft | 392 kts | 71° |
| 2026-05-05 19:46 | 51.55784 | 19.28727 | 24749 ft | 389 kts | 71° |
| 2026-05-05 19:46 | 51.56695 | 19.32782 | 24162 ft | 385 kts | 71° |
| 2026-05-05 19:47 | 51.57605 | 19.36828 | 23569 ft | 382 kts | 71° |
| 2026-05-05 19:47 | 51.58501 | 19.40829 | 22931 ft | 379 kts | 71° |
| 2026-05-05 19:47 | 51.59369 | 19.44720 | 22528 ft | 370 kts | 71° |
| 2026-05-05 19:47 | 51.60239 | 19.48631 | 22011 ft | 364 kts | 71° |
| 2026-05-05 19:48 | 51.61088 | 19.52444 | 21460 ft | 360 kts | 71° |
| 2026-05-05 19:48 | 51.61931 | 19.56239 | 20487 ft | 372 kts | 71° |
| 2026-05-05 19:48 | 51.62814 | 19.60233 | 19642 ft | 383 kts | 71° |
| 2026-05-05 19:48 | 51.63706 | 19.64282 | 19099 ft | 384 kts | 71° |
| 2026-05-05 19:49 | 51.64597 | 19.68329 | 18634 ft | 383 kts | 71° |
| 2026-05-05 19:49 | 51.65197 | 19.71048 | 18327 ft | 381 kts | 71° |
| 2026-05-05 19:49 | 51.66366 | 19.76364 | 17718 ft | 378 kts | 71° |
| 2026-05-05 19:49 | 51.67237 | 19.80346 | 17227 ft | 376 kts | 71° |
| 2026-05-05 19:50 | 51.68101 | 19.84309 | 16763 ft | 374 kts | 71° |
| 2026-05-05 19:50 | 51.68966 | 19.88263 | 16298 ft | 372 kts | 71° |
| 2026-05-05 19:50 | 51.69824 | 19.92187 | 15844 ft | 371 kts | 72° |
| 2026-05-05 19:50 | 51.70677 | 19.96104 | 15390 ft | 369 kts | 72° |
| 2026-05-05 19:51 | 51.71522 | 19.99994 | 14949 ft | 368 kts | 72° |
| 2026-05-05 19:51 | 51.72366 | 20.03879 | 14512 ft | 366 kts | 72° |
| 2026-05-05 19:51 | 51.73203 | 20.07746 | 14083 ft | 365 kts | 72° |
| 2026-05-05 19:51 | 51.74035 | 20.11598 | 13652 ft | 363 kts | 72° |
| 2026-05-05 19:52 | 51.74864 | 20.15445 | 13210 ft | 362 kts | 72° |
| 2026-05-05 19:52 | 51.75685 | 20.19265 | 12776 ft | 359 kts | 72° |
| 2026-05-05 19:52 | 51.76500 | 20.23065 | 12352 ft | 357 kts | 72° |
| 2026-05-05 19:52 | 51.77305 | 20.26836 | 11923 ft | 354 kts | 72° |
| 2026-05-05 19:53 | 51.78103 | 20.30579 | 11500 ft | 352 kts | 73° |
| 2026-05-05 19:53 | 51.78893 | 20.34295 | 11076 ft | 349 kts | 72° |
| 2026-05-05 19:53 | 51.79681 | 20.37993 | 10664 ft | 347 kts | 73° |
| 2026-05-05 19:53 | 51.80464 | 20.41671 | 10259 ft | 345 kts | 72° |
| 2026-05-05 19:54 | 51.81242 | 20.45318 | 9861 ft | 342 kts | 72° |
| 2026-05-05 19:54 | 51.82005 | 20.48903 | 9442 ft | 340 kts | 73° |
| 2026-05-05 19:54 | 51.82765 | 20.52489 | 9140 ft | 333 kts | 73° |
| 2026-05-05 19:54 | 51.83494 | 20.55917 | 8971 ft | 312 kts | 73° |
| 2026-05-05 19:55 | 51.84190 | 20.59200 | 8651 ft | 306 kts | 73° |
| 2026-05-05 19:55 | 51.84871 | 20.62434 | 8343 ft | 303 kts | 73° |
| 2026-05-05 19:55 | 51.85557 | 20.65711 | 8038 ft | 303 kts | 73° |
| 2026-05-05 19:55 | 51.86220 | 20.68891 | 7743 ft | 301 kts | 73° |
| 2026-05-05 19:56 | 51.86888 | 20.72090 | 7444 ft | 299 kts | 73° |
| 2026-05-05 19:56 | 51.87553 | 20.75274 | 7150 ft | 298 kts | 73° |
| 2026-05-05 19:56 | 51.88214 | 20.78444 | 6990 ft | 298 kts | 73° |
| 2026-05-05 19:56 | 51.88872 | 20.81608 | 6847 ft | 296 kts | 73° |
| 2026-05-05 19:57 | 51.89318 | 20.83755 | 6624 ft | 296 kts | 73° |
| 2026-05-05 19:57 | 51.89976 | 20.86914 | 6314 ft | 296 kts | 73° |
| 2026-05-05 19:57 | 51.90630 | 20.90053 | 5991 ft | 294 kts | 73° |
| 2026-05-05 19:57 | 51.91281 | 20.93192 | 5661 ft | 293 kts | 72° |
| 2026-05-05 19:58 | 51.91926 | 20.96311 | 5325 ft | 292 kts | 73° |
| 2026-05-05 19:58 | 51.92324 | 20.99492 | 5017 ft | 287 kts | 90° |
| 2026-05-05 19:58 | 51.92554 | 21.02683 | 4703 ft | 285 kts | 71° |
| 2026-05-05 19:58 | 51.93664 | 21.05270 | 4378 ft | 279 kts | 35° |
| 2026-05-05 19:59 | 51.95369 | 21.06432 | 4050 ft | 260 kts | 7° |
| 2026-05-05 19:59 | 51.97099 | 21.06980 | 3750 ft | 248 kts | 11° |
| 2026-05-05 19:59 | 51.98712 | 21.07852 | 3462 ft | 241 kts | 20° |
| 2026-05-05 19:59 | 52.00252 | 21.08849 | 3166 ft | 233 kts | 11° |
| 2026-05-05 20:00 | 52.01793 | 21.09034 | 3016 ft | 213 kts | 348° |
| 2026-05-05 20:00 | 52.03161 | 21.08389 | 2968 ft | 198 kts | 328° |
| 2026-05-05 20:00 | 52.04332 | 21.07385 | 2798 ft | 190 kts | 326° |
| 2026-05-05 20:00 | 52.05494 | 21.06370 | 2574 ft | 186 kts | 326° |
| 2026-05-05 20:01 | 52.06625 | 21.05386 | 2332 ft | 181 kts | 326° |
| 2026-05-05 20:01 | 52.07690 | 21.04463 | 2089 ft | 165 kts | 326° |
| 2026-05-05 20:01 | 52.08674 | 21.03607 | 1879 ft | 157 kts | 327° |
| 2026-05-05 20:01 | 52.09623 | 21.02779 | 1688 ft | 153 kts | 327° |
| 2026-05-05 20:02 | 52.10557 | 21.01963 | 1481 ft | 152 kts | 328° |
| 2026-05-05 20:02 | 52.11477 | 21.01150 | 1299 ft | 150 kts | 328° |
| 2026-05-05 20:02 | 52.12395 | 21.00342 | 1088 ft | 150 kts | 330° |
| 2026-05-05 20:02 | 52.13302 | 20.99554 | 857 ft | 149 kts | 330° |
| 2026-05-05 20:03 | 52.14210 | 20.98744 | 661 ft | 149 kts | 331° |
| 2026-05-05 20:03 | 52.15123 | 20.97952 | 486 ft | 149 kts | 331° |
| 2026-05-05 20:03 | 52.16039 | 20.97167 | 374 ft | 144 kts | 332° |
| 2026-05-05 20:03 | 52.16655 | 20.96635 | 362 ft | 43 kts | 334° |
| 2026-05-05 20:04 | 52.16911 | 20.96512 | 364 ft | 35 kts | 359° |
| 2026-05-05 20:04 | 52.17038 | 20.96516 | 363 ft | 0 kts | 2° |
| 2026-05-05 20:05 | 52.17040 | 20.96517 | 363 ft | 1 kts | 6° |
| 2026-05-05 20:05 | 52.17045 | 20.96518 | 362 ft | 0 kts | 11° |
| 2026-05-05 20:05 | 52.17063 | 20.96531 | 361 ft | 6 kts | 30° |
| 2026-05-05 20:06 | 52.17090 | 20.96578 | 362 ft | 6 kts | 56° |
| 2026-05-05 20:06 | 52.17109 | 20.96631 | 365 ft | 5 kts | 60° |
| 2026-05-05 20:06 | 52.17123 | 20.96670 | 362 ft | 3 kts | 61° |
| 2026-05-05 20:06 | 52.17141 | 20.96727 | 362 ft | 9 kts | 63° |
| 2026-05-05 20:07 | 52.17153 | 20.96828 | 362 ft | 8 kts | 116° |
| 2026-05-05 20:07 | 52.17106 | 20.96885 | 363 ft | 9 kts | 154° |
| 2026-05-05 20:07 | 52.17044 | 20.96937 | 365 ft | 11 kts | 152° |
| 2026-05-05 20:07 | 52.17034 | 20.96945 | 367 ft | 0 kts | 152° |
| 2026-05-05 20:08 | 52.17012 | 20.96965 | 361 ft | 6 kts | 152° |
| 2026-05-05 20:08 | 52.16983 | 20.97013 | 366 ft | 6 kts | 98° |
| 2026-05-05 20:08 | 52.16990 | 20.97070 | 362 ft | 4 kts | 65° |
| 2026-05-05 20:08 | 52.16998 | 20.97112 | 363 ft | 3 kts | 75° |
| 2026-05-05 20:09 | 52.17003 | 20.97140 | 361 ft | 0 kts | 74° |